CW7747 Svedala SE current weather conditions

sailwx.info

Wind from 112

Air temperature 17.8° C
Dewpoint 13.1° C

Last reported at 2019-Aug-23 21:07 UTC.
Time now 2019-Aug-23 21:51 UTC

Location: N 55°31' E 013°13'.
View on Google Maps.

See reports from other nearby stations

  
Tides and Currents Weather Stations Pressure Air Temp Water Temp Dewpoint Dewpoint Depression Visibility Wind Speed Wind Dir Waves Ship Positions
date/time (UTC)wind fromknots sea level pressurealtimeterstation pressurevisibilityair tempwater tempwave heightnotes
2019-Aug-23 21:07 112 17.8
2019-Aug-23 20:57 116 18.3
2019-Aug-23 20:52 180 18.3
2019-Aug-23 20:47 202 18.3
2019-Aug-23 20:42 202 18.3
2019-Aug-23 20:32 216 18.3
2019-Aug-23 20:27 180 18.9
2019-Aug-23 20:22 202 18.9
2019-Aug-23 20:17 213 18.9
2019-Aug-23 20:07 183 18.9
2019-Aug-23 20:02 202 19.4
2019-Aug-23 19:52 223 19.4
2019-Aug-23 19:47 243 19.4
2019-Aug-23 19:42 225 19.4
2019-Aug-23 19:37 202 20.0
2019-Aug-23 19:32 215 20.0
2019-Aug-23 19:27 207 20.0
2019-Aug-23 19:17 202 20.0
2019-Aug-23 19:07 202 20.6
2019-Aug-23 18:52 202 20.6
2019-Aug-23 18:47 199 21.1
2019-Aug-23 18:42 201 21.1
2019-Aug-23 18:37 202 21.1
2019-Aug-23 18:32 186 21.7
2019-Aug-23 18:27 202 21.7
2019-Aug-23 18:12 237 22.2
2019-Aug-23 18:07 232 1 gusting 2 22.2
2019-Aug-23 18:02 225 1 gusting 4 22.2
2019-Aug-23 17:57 233 2 gusting 2 22.2
2019-Aug-23 17:42 236 3 gusting 5 22.8
2019-Aug-23 17:37 213 1 gusting 5 22.8
2019-Aug-23 17:32 212 1 gusting 4 23.3
2019-Aug-23 17:27 210 3 gusting 7 23.3
2019-Aug-23 17:17 216 5 gusting 6 23.3
2019-Aug-23 17:12 230 3 gusting 5 23.3
2019-Aug-23 17:07 242 3 gusting 6 23.3
2019-Aug-23 17:02 206 4 gusting 7 23.3
2019-Aug-23 16:57 244 6 gusting 10 23.3
2019-Aug-23 16:52 219 4 gusting 6 23.9
2019-Aug-23 16:47 235 3 gusting 8 23.9
2019-Aug-23 16:37 207 5 gusting 12 23.9
2019-Aug-23 16:22 228 6 gusting 12 23.9
2019-Aug-23 16:02 203 5 gusting 8 23.9
2019-Aug-23 15:57 207 5 gusting 8 23.9
2019-Aug-23 15:52 206 6 gusting 11 23.9
2019-Aug-23 15:47 214 6 gusting 11 23.9
2019-Aug-23 15:37 224 5 gusting 12 24.4
2019-Aug-23 15:27 208 6 gusting 10 23.9
2019-Aug-23 15:22 221 5 gusting 8 24.4
2019-Aug-23 15:17 181 6 gusting 10 24.4
2019-Aug-23 15:12 236 5 gusting 11 24.4
2019-Aug-23 15:07 227 5 gusting 11 24.4
2019-Aug-23 15:02 250 6 gusting 11 24.4
2019-Aug-23 14:57 202 4 gusting 6 24.4
2019-Aug-23 14:42 202 7 gusting 12 24.4
2019-Aug-23 14:37 188 6 gusting 11 24.4
2019-Aug-23 14:27 235 6 gusting 12 24.4
2019-Aug-23 14:17 183 6 gusting 10 24.4
2019-Aug-23 14:12 216 7 gusting 13 24.4
2019-Aug-23 14:02 187 6 gusting 12 24.4
2019-Aug-23 13:57 230 7 gusting 13 24.4
2019-Aug-23 13:42 225 6 gusting 10 24.4
2019-Aug-23 13:37 187 6 gusting 12 24.4
2019-Aug-23 13:32 224 6 gusting 12 24.4
2019-Aug-23 13:17 206 7 gusting 13 24.4
2019-Aug-23 13:02 207 6 gusting 8 23.9
2019-Aug-23 12:57 231 6 gusting 13 23.9
2019-Aug-23 12:47 180 7 gusting 13 23.9
2019-Aug-23 12:42 249 8 gusting 14 23.9
2019-Aug-23 12:37 218 8 gusting 11 23.9
2019-Aug-23 12:32 242 7 gusting 13 23.9
2019-Aug-23 12:27 204 7 gusting 13 23.3
2019-Aug-23 12:22 240 7 gusting 11 23.3
2019-Aug-23 12:02 208 8 gusting 14 23.3
2019-Aug-23 11:57 201 8 gusting 18 23.3
2019-Aug-23 11:52 197 7 gusting 17 23.3
2019-Aug-23 11:47 177 8 gusting 17 23.3
2019-Aug-23 11:42 180 8 gusting 13 22.8
2019-Aug-23 11:32 221 9 gusting 15 22.8
2019-Aug-23 11:17 231 9 gusting 14 23.3
2019-Aug-23 11:12 239 8 gusting 13 23.3
2019-Aug-23 11:07 202 8 gusting 14 23.3
2019-Aug-23 11:02 236 9 gusting 14 23.3
2019-Aug-23 10:52 215 6 gusting 12 22.8
2019-Aug-23 10:47 222 10 gusting 13 22.8
2019-Aug-23 10:42 216 8 gusting 13 22.8
2019-Aug-23 10:32 220 6 gusting 12 22.8
2019-Aug-23 10:22 198 6 gusting 12 22.2
2019-Aug-23 10:17 219 7 gusting 12 22.2
2019-Aug-23 10:07 197 7 gusting 13 22.2
2019-Aug-23 10:02 199 6 gusting 11 22.2
2019-Aug-23 09:57 191 8 gusting 14 22.2
2019-Aug-23 09:47 246 7 gusting 13 22.2
2019-Aug-23 09:42 202 5 gusting 12 22.2
2019-Aug-23 09:37 210 6 gusting 18 21.7
2019-Aug-23 09:32 185 6 gusting 11 21.7
2019-Aug-23 09:22 198 6 gusting 11 21.7
2019-Aug-23 09:17 206 6 gusting 10 21.7
2019-Aug-23 09:07 189 6 gusting 13 21.7
2019-Aug-23 09:02 224 6 gusting 13 21.7
2019-Aug-23 08:57 202 7 gusting 8 21.7
2019-Aug-23 08:47 202 6 gusting 8 21.7
2019-Aug-23 08:42 226 6 gusting 10 21.7
2019-Aug-23 08:37 208 6 gusting 8 21.7
2019-Aug-23 08:27 213 5 gusting 7 21.1
2019-Aug-23 08:07 198 5 gusting 8 21.1
2019-Aug-23 07:57 199 5 gusting 8 20.6
2019-Aug-23 07:52 203 5 gusting 11 20.6
2019-Aug-23 07:47 193 5 gusting 10 20.6
2019-Aug-23 07:37 188 5 gusting 7 20.0
2019-Aug-23 07:22 184 4 gusting 8 19.4
2019-Aug-23 07:17 199 3 gusting 6 19.4
2019-Aug-23 07:07 195 2 gusting 6 18.9
2019-Aug-23 07:02 216 3 gusting 5 18.9
2019-Aug-23 06:57 180 4 gusting 6 18.3
2019-Aug-23 06:52 201 3 gusting 5 18.3
2019-Aug-23 06:47 199 2 gusting 5 18.3
2019-Aug-23 06:37 184 1 gusting 5 18.3
2019-Aug-23 06:32 175 1 gusting 4 17.8
2019-Aug-23 06:27 167 2 gusting 5 17.8
2019-Aug-23 06:17 196 17.2
2019-Aug-23 06:07 201 17.2
2019-Aug-23 06:02 193 1 gusting 2 16.7
2019-Aug-23 05:57 194 1 gusting 4 16.7
2019-Aug-23 05:47 157 0 gusting 2 16.7
2019-Aug-23 05:37 185 0 gusting 4 16.1
2019-Aug-23 05:27 158 16.1
2019-Aug-23 05:22 151 15.6
2019-Aug-23 05:17 144 1 gusting 4 15.6
2019-Aug-23 05:12 159 15.6
2019-Aug-23 05:07 139 0 gusting 1 15.6
2019-Aug-23 05:02 138 15.6
2019-Aug-23 04:57 152 15.6
2019-Aug-23 04:52 139 15.6
2019-Aug-23 04:42 152 15.0
2019-Aug-23 04:37 158 15.0
2019-Aug-23 04:32 188 15.0
2019-Aug-23 04:27 160 15.0
2019-Aug-23 04:12 135 14.4
2019-Aug-23 04:02 147 14.4
2019-Aug-23 03:47 135 14.4
2019-Aug-23 03:37 158 14.4
2019-Aug-23 03:32 149 14.4
2019-Aug-23 03:27 158 14.4
2019-Aug-23 03:22 135 14.4
2019-Aug-23 03:17 112 14.4
2019-Aug-23 03:07 112 14.4
2019-Aug-23 02:57 112 14.4
2019-Aug-23 02:52 112 14.4
2019-Aug-23 02:47 112 14.4
2019-Aug-23 02:42 112 14.4
2019-Aug-23 02:22 076 15.0
2019-Aug-23 02:17 068 15.0
2019-Aug-23 02:07 068 15.0
2019-Aug-23 01:57 112 15.0
2019-Aug-23 01:52 135 15.0
2019-Aug-23 01:47 135 15.0
2019-Aug-23 01:42 180 15.6
2019-Aug-23 01:37 180 15.6
2019-Aug-23 01:22 202 15.6
2019-Aug-23 01:17 202 15.6
2019-Aug-23 01:07 225 15.6
2019-Aug-23 00:57 204 15.6
2019-Aug-23 00:52 192 15.6
2019-Aug-23 00:42 190 15.6
2019-Aug-23 00:37 202 15.6
2019-Aug-23 00:32 180 16.1
2019-Aug-23 00:27 189 16.1
2019-Aug-23 00:17 202 16.1
2019-Aug-23 00:12 202 16.1
2019-Aug-23 00:07 225 16.1
2019-Aug-23 00:02 225 16.1
2019-Aug-22 23:57 225 16.7
2019-Aug-22 23:52 259 16.7
2019-Aug-22 23:47 254 16.7
2019-Aug-22 23:42 180 16.7
2019-Aug-22 23:37 163 16.7
2019-Aug-22 23:27 192 16.7
2019-Aug-22 23:22 173 16.7
2019-Aug-22 23:17 131 0 gusting 2 17.2
2019-Aug-22 23:12 147 0 gusting 2 17.2
2019-Aug-22 23:02 121 1 gusting 2 17.2
2019-Aug-22 22:52 104 2 gusting 5 17.2
2019-Aug-22 22:47 104 1 gusting 2 17.2
2019-Aug-22 22:42 127 1 gusting 4 17.2
2019-Aug-22 22:37 132 2 gusting 4 17.2
2019-Aug-22 22:32 119 1 gusting 2 17.2
2019-Aug-22 22:27 111 1 gusting 4 17.2
2019-Aug-22 22:17 155 2 gusting 5 17.2
2019-Aug-22 22:12 134 2 gusting 5 17.2
2019-Aug-22 21:57 122 3 gusting 6 17.2
2019-Aug-22 21:47 140 1 gusting 4 17.2
2019-Aug-22 21:42 122 2 gusting 5 17.2
2019-Aug-22 21:32 127 1 gusting 6 17.2
2019-Aug-22 21:22 138 0 gusting 5 17.2
2019-Aug-22 21:12 129 1 gusting 5 17.8
2019-Aug-22 21:07 119 2 gusting 4 17.8
2019-Aug-22 21:02 116 2 gusting 5 17.8
2019-Aug-22 20:57 124 0 gusting 5 17.8
2019-Aug-22 20:52 136 1 gusting 5 17.8
2019-Aug-22 20:42 130 2 gusting 4 17.8
2019-Aug-22 20:37 097 0 gusting 2 17.8
2019-Aug-22 20:27 120 0 gusting 4 17.8
2019-Aug-22 20:22 104 0 gusting 5 17.8
2019-Aug-22 20:07 138 1 gusting 4 17.8
2019-Aug-22 20:02 137 17.8
2019-Aug-22 19:52 134 2 gusting 5 17.8
2019-Aug-22 19:47 128 1 gusting 5 17.8
2019-Aug-22 19:32 127 1 gusting 4 18.3
2019-Aug-22 19:27 156 3 gusting 5 18.3
2019-Aug-22 19:22 126 1 gusting 5 18.3
2019-Aug-22 19:17 130 2 gusting 5 18.3
2019-Aug-22 19:12 142 1 gusting 5 18.3
2019-Aug-22 19:07 107 3 gusting 6 18.3
2019-Aug-22 19:02 082 4 gusting 6 18.3
2019-Aug-22 18:57 118 3 gusting 6 18.9
2019-Aug-22 18:52 112 4 gusting 6 18.9
2019-Aug-22 18:47 107 2 gusting 5 18.9
2019-Aug-22 18:32 136 2 gusting 4 19.4
2019-Aug-22 18:27 120 1 gusting 5 19.4
2019-Aug-22 18:22 109 2 gusting 5 19.4
2019-Aug-22 18:17 145 1 gusting 6 19.4
2019-Aug-22 18:07 103 1 gusting 4 20.0
2019-Aug-22 17:57 116 2 gusting 4 20.0
2019-Aug-22 17:42 131 3 gusting 7 20.6
2019-Aug-22 17:37 137 2 gusting 6 20.6
2019-Aug-22 17:27 135 3 gusting 7 21.1
2019-Aug-22 17:22 083 3 gusting 7 21.1
2019-Aug-22 17:17 122 4 gusting 6 21.1
2019-Aug-22 17:12 112 3 gusting 5 21.1
2019-Aug-22 17:07 109 2 gusting 8 21.1
2019-Aug-22 17:02 092 2 gusting 6 21.1
2019-Aug-22 16:57 093 3 gusting 6 21.1
2019-Aug-22 16:52 129 3 gusting 6 21.1
2019-Aug-22 16:47 112 5 gusting 7 21.1
2019-Aug-22 16:42 121 4 gusting 8 21.1
2019-Aug-22 16:37 104 6 gusting 8 21.1
2019-Aug-22 16:32 136 5 gusting 11 21.7
2019-Aug-22 16:27 137 4 gusting 8 21.7
2019-Aug-22 16:22 150 4 gusting 8 21.7
2019-Aug-22 16:17 090 6 gusting 11 21.7
2019-Aug-22 16:12 086 4 gusting 8 21.7
2019-Aug-22 16:07 117 6 gusting 12 21.7
2019-Aug-22 16:02 075 5 gusting 8 21.7
2019-Aug-22 15:57 134 5 gusting 10 21.7
2019-Aug-22 15:52 148 6 gusting 10 22.2
2019-Aug-22 15:47 077 4 gusting 7 22.2
2019-Aug-22 15:42 118 5 gusting 10 22.2
2019-Aug-22 15:37 120 5 gusting 8 22.2
2019-Aug-22 15:32 118 6 gusting 7 22.2
2019-Aug-22 15:22 170 4 gusting 6 21.7
2019-Aug-22 15:17 144 6 gusting 11 21.7
2019-Aug-22 15:02 133 5 gusting 13 21.7
2019-Aug-22 14:57 134 6 gusting 12 22.2
2019-Aug-22 14:52 122 6 gusting 12 22.2
2019-Aug-22 14:37 122 6 gusting 12 22.2
2019-Aug-22 14:32 133 6 gusting 12 22.2
2019-Aug-22 14:27 157 6 gusting 10 22.2
2019-Aug-22 14:12 125 4 gusting 14 21.7
2019-Aug-22 14:07 160 10 gusting 15 21.7
2019-Aug-22 14:02 164 7 gusting 13 21.7
2019-Aug-22 13:52 139 5 gusting 12 22.2
2019-Aug-22 13:47 151 6 gusting 13 22.2
2019-Aug-22 13:42 172 5 gusting 13 21.7
2019-Aug-22 13:37 177 7 gusting 14 21.7
2019-Aug-22 13:32 150 7 gusting 13 22.2
2019-Aug-22 13:27 144 7 gusting 14 22.2
2019-Aug-22 13:22 156 4 gusting 15 22.2
2019-Aug-22 13:12 152 6 gusting 13 22.2
2019-Aug-22 13:07 143 8 gusting 17 22.2
2019-Aug-22 12:57 157 6 gusting 13 22.2
2019-Aug-22 12:52 126 6 gusting 12 21.7
2019-Aug-22 12:47 188 6 gusting 13 21.7
2019-Aug-22 12:32 119 5 gusting 13 22.2
2019-Aug-22 12:27 172 4 gusting 11 21.7
2019-Aug-22 12:22 183 8 gusting 13 21.7
2019-Aug-22 12:17 143 7 gusting 11 21.7
2019-Aug-22 12:12 145 6 gusting 11 21.7
2019-Aug-22 11:52 124 7 gusting 13 21.7
2019-Aug-22 11:47 157 6 gusting 10 21.7
2019-Aug-22 11:37 160 6 gusting 13 21.7
2019-Aug-22 11:32 172 6 gusting 13 21.1
2019-Aug-22 11:22 185 8 gusting 18 21.1
2019-Aug-22 11:17 156 8 gusting 17 21.1
2019-Aug-22 11:12 159 10 gusting 14 21.1
2019-Aug-22 11:07 158 8 gusting 12 21.1
2019-Aug-22 11:02 159 9 gusting 17 21.1
2019-Aug-22 10:57 158 8 gusting 13 21.1
2019-Aug-22 10:42 179 8 gusting 13 20.6
2019-Aug-22 10:37 203 8 gusting 14 20.6
2019-Aug-22 10:32 174 6 gusting 12 20.6
2019-Aug-22 10:27 191 6 gusting 13 20.6
2019-Aug-22 10:12 158 7 gusting 12 20.6
2019-Aug-22 10:07 187 7 gusting 14 20.6
2019-Aug-22 10:02 176 7 gusting 13 20.6
2019-Aug-22 09:57 175 7 gusting 13 20.6
2019-Aug-22 09:47 154 8 gusting 13 20.0
2019-Aug-22 09:42 191 5 gusting 8 20.0
2019-Aug-22 09:37 174 7 gusting 13 20.0
2019-Aug-22 09:32 158 7 gusting 12 20.0
2019-Aug-22 09:27 175 4 gusting 8 19.4
2019-Aug-22 09:22 172 4 gusting 12 19.4
2019-Aug-22 09:17 186 6 gusting 13 19.4
2019-Aug-22 09:12 159 6 gusting 12 19.4
2019-Aug-22 09:07 146 5 gusting 7 19.4
2019-Aug-22 09:02 149 5 gusting 8 19.4
2019-Aug-22 08:52 158 7 gusting 12 18.9
2019-Aug-22 08:42 173 6 gusting 13 18.9
2019-Aug-22 08:37 163 6 gusting 13 18.9
2019-Aug-22 08:32 165 6 gusting 13 18.9
2019-Aug-22 08:27 171 6 gusting 14 18.9
2019-Aug-22 08:22 170 6 gusting 13 18.9
2019-Aug-22 08:12 162 5 gusting 10 18.9
2019-Aug-22 08:07 168 4 gusting 7 18.9
2019-Aug-22 08:02 164 5 gusting 11 18.3
2019-Aug-22 07:57 175 6 gusting 12 18.3
2019-Aug-22 07:52 169 6 gusting 12 18.3
2019-Aug-22 07:47 191 5 gusting 8 18.3
2019-Aug-22 07:42 174 6 gusting 12 18.3
2019-Aug-22 07:32 181 5 gusting 10 18.3
2019-Aug-22 07:27 163 5 gusting 12 17.8
2019-Aug-22 07:22 180 6 gusting 11 17.8
2019-Aug-22 07:12 160 5 gusting 8 17.8
2019-Aug-22 07:07 167 5 gusting 11 17.8
2019-Aug-22 07:02 156 6 gusting 10 17.8
2019-Aug-22 06:57 152 6 gusting 8 17.2
2019-Aug-22 06:52 141 5 gusting 6 17.2
2019-Aug-22 06:47 196 5 gusting 8 17.2
2019-Aug-22 06:37 158 4 gusting 6 16.7
2019-Aug-22 06:27 150 3 gusting 6 16.7
2019-Aug-22 06:22 144 4 gusting 6 16.1
2019-Aug-22 06:17 197 1 gusting 5 16.1
2019-Aug-22 06:12 169 2 gusting 5 16.1
2019-Aug-22 06:07 156 2 gusting 5 16.1
2019-Aug-22 06:02 199 15.6
2019-Aug-22 05:57 155 2 gusting 6 15.6
2019-Aug-22 05:52 197 1 gusting 2 15.0
2019-Aug-22 05:42 164 14.4
2019-Aug-22 05:32 135 13.9
2019-Aug-22 05:22 120 12.8
2019-Aug-22 05:17 112 12.8
2019-Aug-22 05:12 106 12.2
2019-Aug-22 05:07 084 12.2
2019-Aug-22 05:02 098 11.7
2019-Aug-22 04:57 068 11.7
2019-Aug-22 04:52 073 11.7
2019-Aug-22 04:47 096 11.7
2019-Aug-22 04:42 112 11.7
2019-Aug-22 04:37 117 11.7
2019-Aug-22 04:32 139 11.1
2019-Aug-22 04:27 131 11.1
2019-Aug-22 04:22 155 11.1
2019-Aug-22 04:17 132 11.1
2019-Aug-22 04:12 135 11.1
2019-Aug-22 04:07 125 11.1
2019-Aug-22 03:57 068 11.1
2019-Aug-22 03:52 045 11.1
2019-Aug-22 03:42 045 11.1
2019-Aug-22 03:37 058 11.1
2019-Aug-22 03:27 068 11.1
2019-Aug-22 03:22 045 11.1
2019-Aug-22 03:17 045 11.1
2019-Aug-22 03:02 045 11.1
2019-Aug-22 02:57 068 11.1
2019-Aug-22 02:52 107 11.1
2019-Aug-22 02:47 112 11.1
2019-Aug-22 02:37 068 11.1
2019-Aug-22 02:32 045 11.1
2019-Aug-22 02:27 045 11.1
2019-Aug-22 02:17 045 11.1
2019-Aug-22 02:12 045 11.1
2019-Aug-22 02:02 045 11.1
2019-Aug-22 01:57 045 11.1
2019-Aug-22 01:52 045 11.1
2019-Aug-22 01:47 068 11.1
2019-Aug-22 01:42 077 11.1
2019-Aug-22 01:37 105 11.1
2019-Aug-22 01:27 045 11.7
2019-Aug-22 01:22 045 11.7
2019-Aug-22 01:17 045 11.7
2019-Aug-22 01:02 053 11.7
2019-Aug-22 00:57 045 11.7
2019-Aug-22 00:52 062 11.7
2019-Aug-22 00:47 073 11.7
2019-Aug-22 00:42 068 11.7
2019-Aug-22 00:37 101 11.7
2019-Aug-22 00:32 069 11.7
2019-Aug-22 00:27 068 11.7
2019-Aug-22 00:22 068 11.7
2019-Aug-22 00:17 068 11.7
2019-Aug-22 00:07 045 11.7
2019-Aug-21 23:47 045 11.7
2019-Aug-21 23:42 045 12.2
2019-Aug-21 23:37 045 12.2
2019-Aug-21 23:27 066 12.2
2019-Aug-21 23:22 068 11.7
2019-Aug-21 23:17 129 12.2
2019-Aug-21 23:12 177 12.2
2019-Aug-21 23:07 180 12.2
2019-Aug-21 23:02 180 12.2
2019-Aug-21 22:57 180 12.2
2019-Aug-21 22:52 180 12.2
2019-Aug-21 22:47 180 12.2
2019-Aug-21 22:37 120 12.2
2019-Aug-21 22:32 068 12.2
2019-Aug-21 22:27 068 12.2
2019-Aug-21 22:12 045 12.8
2019-Aug-21 22:07 045 12.8
2019-Aug-21 22:02 068 12.8
2019-Aug-21 21:57 068 12.8
2019-Aug-21 21:52 068 12.8
2019-Aug-21 21:47 068 12.8
2019-Aug-21 21:37 045 12.8
2019-Aug-21 21:27 045 12.8
2019-Aug-21 21:22 090 13.3
2019-Aug-21 21:17 100 13.3
2019-Aug-21 21:12 068 13.3
2019-Aug-21 21:07 070 13.3
2019-Aug-21 21:02 094 13.3